sensor_id;sensor_type;location;lat;lon;timestamp;P1;durP1;ratioP1;P2;durP2;ratioP2
7195;SDS011;3639;51.308;5.624;2023-04-01T00:02:18;1.73;;;1.60;;
7195;SDS011;3639;51.308;5.624;2023-04-01T00:04:43;2.67;;;1.80;;
7195;SDS011;3639;51.308;5.624;2023-04-01T00:07:09;4.50;;;1.50;;
7195;SDS011;3639;51.308;5.624;2023-04-01T00:09:35;1.93;;;1.63;;
7195;SDS011;3639;51.308;5.624;2023-04-01T00:12:01;5.57;;;1.73;;
7195;SDS011;3639;51.308;5.624;2023-04-01T00:14:27;2.17;;;1.77;;
7195;SDS011;3639;51.308;5.624;2023-04-01T00:16:53;5.43;;;1.90;;
7195;SDS011;3639;51.308;5.624;2023-04-01T00:19:19;2.00;;;1.40;;
7195;SDS011;3639;51.308;5.624;2023-04-01T00:21:45;2.07;;;1.87;;
7195;SDS011;3639;51.308;5.624;2023-04-01T00:24:11;3.40;;;1.93;;
7195;SDS011;3639;51.308;5.624;2023-04-01T00:26:37;3.33;;;1.70;;
7195;SDS011;3639;51.308;5.624;2023-04-01T00:29:02;2.27;;;2.07;;
7195;SDS011;3639;51.308;5.624;2023-04-01T00:31:28;3.30;;;1.73;;
7195;SDS011;3639;51.308;5.624;2023-04-01T00:33:54;1.57;;;1.47;;
7195;SDS011;3639;51.308;5.624;2023-04-01T00:36:21;3.57;;;1.60;;
7195;SDS011;3639;51.308;5.624;2023-04-01T00:38:48;2.07;;;1.63;;
7195;SDS011;3639;51.308;5.624;2023-04-01T00:41:14;2.60;;;1.57;;
7195;SDS011;3639;51.308;5.624;2023-04-01T00:43:42;5.50;;;1.93;;
7195;SDS011;3639;51.308;5.624;2023-04-01T00:46:10;5.77;;;1.70;;
7195;SDS011;3639;51.308;5.624;2023-04-01T00:48:38;1.73;;;1.63;;
7195;SDS011;3639;51.308;5.624;2023-04-01T00:53:34;3.33;;;1.77;;
7195;SDS011;3639;51.308;5.624;2023-04-01T00:56:10;3.80;;;1.47;;
7195;SDS011;3639;51.308;5.624;2023-04-01T00:58:45;2.07;;;1.50;;
7195;SDS011;3639;51.308;5.624;2023-04-01T01:01:14;1.37;;;1.27;;
7195;SDS011;3639;51.308;5.624;2023-04-01T01:03:40;2.07;;;1.73;;
7195;SDS011;3639;51.308;5.624;2023-04-01T01:06:18;2.43;;;1.60;;
7195;SDS011;3639;51.308;5.624;2023-04-01T01:11:42;2.67;;;1.63;;
7195;SDS011;3639;51.308;5.624;2023-04-01T01:14:23;5.80;;;1.57;;
7195;SDS011;3639;51.308;5.624;2023-04-01T01:17:13;2.47;;;1.50;;
7195;SDS011;3639;51.308;5.624;2023-04-01T01:22:52;3.23;;;1.80;;
7195;SDS011;3639;51.308;5.624;2023-04-01T01:25:29;4.30;;;2.13;;
7195;SDS011;3639;51.308;5.624;2023-04-01T01:28:06;3.13;;;1.83;;
7195;SDS011;3639;51.308;5.624;2023-04-01T01:31:00;3.10;;;1.60;;
7195;SDS011;3639;51.308;5.624;2023-04-01T01:34:04;1.60;;;1.50;;
7195;SDS011;3639;51.308;5.624;2023-04-01T01:36:39;1.70;;;1.60;;
7195;SDS011;3639;51.308;5.624;2023-04-01T01:39:07;3.67;;;1.80;;
7195;SDS011;3639;51.308;5.624;2023-04-01T01:41:35;1.70;;;1.60;;
7195;SDS011;3639;51.308;5.624;2023-04-01T01:44:03;2.23;;;1.80;;
7195;SDS011;3639;51.308;5.624;2023-04-01T01:46:31;3.10;;;1.90;;
7195;SDS011;3639;51.308;5.624;2023-04-01T01:48:58;2.23;;;1.90;;
7195;SDS011;3639;51.308;5.624;2023-04-01T01:51:28;2.17;;;1.87;;
7195;SDS011;3639;51.308;5.624;2023-04-01T01:53:53;2.00;;;1.73;;
7195;SDS011;3639;51.308;5.624;2023-04-01T01:56:20;1.80;;;1.70;;
7195;SDS011;3639;51.308;5.624;2023-04-01T01:58:51;1.93;;;1.83;;
7195;SDS011;3639;51.308;5.624;2023-04-01T02:01:22;4.80;;;2.00;;
7195;SDS011;3639;51.308;5.624;2023-04-01T02:03:51;3.33;;;2.07;;
7195;SDS011;3639;51.308;5.624;2023-04-01T02:06:18;2.97;;;2.03;;
7195;SDS011;3639;51.308;5.624;2023-04-01T02:08:49;3.27;;;2.00;;
7195;SDS011;3639;51.308;5.624;2023-04-01T02:11:33;5.43;;;2.20;;
7195;SDS011;3639;51.308;5.624;2023-04-01T02:16:51;3.57;;;2.30;;
7195;SDS011;3639;51.308;5.624;2023-04-01T02:19:29;2.73;;;2.13;;
7195;SDS011;3639;51.308;5.624;2023-04-01T02:21:59;3.33;;;2.43;;
7195;SDS011;3639;51.308;5.624;2023-04-01T02:24:28;6.27;;;2.97;;
7195;SDS011;3639;51.308;5.624;2023-04-01T02:26:56;7.53;;;2.80;;
7195;SDS011;3639;51.308;5.624;2023-04-01T02:29:22;5.13;;;2.80;;
7195;SDS011;3639;51.308;5.624;2023-04-01T02:31:50;3.80;;;2.70;;
7195;SDS011;3639;51.308;5.624;2023-04-01T02:34:18;3.33;;;3.03;;
7195;SDS011;3639;51.308;5.624;2023-04-01T02:36:44;5.50;;;2.70;;
7195;SDS011;3639;51.308;5.624;2023-04-01T02:39:11;3.70;;;2.93;;
7195;SDS011;3639;51.308;5.624;2023-04-01T02:41:39;5.57;;;2.70;;
7195;SDS011;3639;51.308;5.624;2023-04-01T02:44:06;6.77;;;3.33;;
7195;SDS011;3639;51.308;5.624;2023-04-01T02:46:32;6.00;;;2.97;;
7195;SDS011;3639;51.308;5.624;2023-04-01T02:48:58;4.43;;;2.87;;
7195;SDS011;3639;51.308;5.624;2023-04-01T02:51:25;2.80;;;2.50;;
7195;SDS011;3639;51.308;5.624;2023-04-01T02:53:51;3.97;;;2.87;;
7195;SDS011;3639;51.308;5.624;2023-04-01T02:56:17;3.07;;;2.43;;
7195;SDS011;3639;51.308;5.624;2023-04-01T02:58:44;3.23;;;2.90;;
7195;SDS011;3639;51.308;5.624;2023-04-01T03:01:10;3.43;;;2.90;;
7195;SDS011;3639;51.308;5.624;2023-04-01T03:03:36;3.93;;;2.80;;
7195;SDS011;3639;51.308;5.624;2023-04-01T03:06:08;7.50;;;3.33;;
7195;SDS011;3639;51.308;5.624;2023-04-01T03:08:36;3.90;;;3.10;;
7195;SDS011;3639;51.308;5.624;2023-04-01T03:11:02;5.03;;;3.67;;
7195;SDS011;3639;51.308;5.624;2023-04-01T03:13:28;4.50;;;3.67;;
7195;SDS011;3639;51.308;5.624;2023-04-01T03:15:53;5.83;;;4.13;;
7195;SDS011;3639;51.308;5.624;2023-04-01T03:18:19;4.73;;;3.80;;
7195;SDS011;3639;51.308;5.624;2023-04-01T03:20:45;6.57;;;3.70;;
7195;SDS011;3639;51.308;5.624;2023-04-01T03:23:11;6.40;;;3.93;;
7195;SDS011;3639;51.308;5.624;2023-04-01T03:25:37;7.37;;;4.10;;
7195;SDS011;3639;51.308;5.624;2023-04-01T03:28:03;7.20;;;4.50;;
7195;SDS011;3639;51.308;5.624;2023-04-01T03:30:28;7.97;;;4.47;;
7195;SDS011;3639;51.308;5.624;2023-04-01T03:32:58;11.50;;;3.93;;
7195;SDS011;3639;51.308;5.624;2023-04-01T03:35:27;6.53;;;4.57;;
7195;SDS011;3639;51.308;5.624;2023-04-01T03:37:53;4.77;;;3.93;;
7195;SDS011;3639;51.308;5.624;2023-04-01T03:40:20;4.70;;;3.83;;
7195;SDS011;3639;51.308;5.624;2023-04-01T03:42:46;4.30;;;3.50;;
7195;SDS011;3639;51.308;5.624;2023-04-01T03:45:11;5.83;;;4.23;;
7195;SDS011;3639;51.308;5.624;2023-04-01T03:47:38;3.63;;;3.33;;
7195;SDS011;3639;51.308;5.624;2023-04-01T03:50:04;4.17;;;3.30;;
7195;SDS011;3639;51.308;5.624;2023-04-01T03:52:32;4.73;;;3.77;;
7195;SDS011;3639;51.308;5.624;2023-04-01T03:54:58;3.93;;;3.23;;
7195;SDS011;3639;51.308;5.624;2023-04-01T03:57:24;4.60;;;3.47;;
7195;SDS011;3639;51.308;5.624;2023-04-01T03:59:49;4.07;;;3.20;;
7195;SDS011;3639;51.308;5.624;2023-04-01T04:02:15;4.53;;;3.33;;
7195;SDS011;3639;51.308;5.624;2023-04-01T04:04:42;5.67;;;3.73;;
7195;SDS011;3639;51.308;5.624;2023-04-01T04:07:07;5.93;;;3.50;;
7195;SDS011;3639;51.308;5.624;2023-04-01T04:09:33;8.47;;;4.83;;
7195;SDS011;3639;51.308;5.624;2023-04-01T04:11:59;4.37;;;3.97;;
7195;SDS011;3639;51.308;5.624;2023-04-01T04:14:25;6.47;;;4.47;;
7195;SDS011;3639;51.308;5.624;2023-04-01T04:16:51;9.20;;;4.80;;
7195;SDS011;3639;51.308;5.624;2023-04-01T04:19:17;4.90;;;4.07;;
7195;SDS011;3639;51.308;5.624;2023-04-01T04:21:42;9.00;;;5.43;;
7195;SDS011;3639;51.308;5.624;2023-04-01T04:24:08;7.53;;;5.13;;
7195;SDS011;3639;51.308;5.624;2023-04-01T04:26:34;9.00;;;4.93;;
7195;SDS011;3639;51.308;5.624;2023-04-01T04:29:00;9.30;;;5.00;;
7195;SDS011;3639;51.308;5.624;2023-04-01T04:31:26;7.63;;;5.00;;
7195;SDS011;3639;51.308;5.624;2023-04-01T04:33:52;7.17;;;4.90;;
7195;SDS011;3639;51.308;5.624;2023-04-01T04:36:18;9.57;;;5.87;;
7195;SDS011;3639;51.308;5.624;2023-04-01T04:38:44;9.00;;;6.07;;
7195;SDS011;3639;51.308;5.624;2023-04-01T04:41:11;10.97;;;6.57;;
7195;SDS011;3639;51.308;5.624;2023-04-01T04:43:47;8.40;;;6.13;;
7195;SDS011;3639;51.308;5.624;2023-04-01T04:46:15;10.30;;;6.10;;
7195;SDS011;3639;51.308;5.624;2023-04-01T04:48:41;9.73;;;6.47;;
7195;SDS011;3639;51.308;5.624;2023-04-01T04:51:10;8.63;;;6.57;;
7195;SDS011;3639;51.308;5.624;2023-04-01T04:53:38;9.43;;;6.63;;
7195;SDS011;3639;51.308;5.624;2023-04-01T04:56:04;11.30;;;7.60;;
7195;SDS011;3639;51.308;5.624;2023-04-01T04:58:30;11.33;;;7.40;;
7195;SDS011;3639;51.308;5.624;2023-04-01T05:00:55;10.80;;;7.13;;
7195;SDS011;3639;51.308;5.624;2023-04-01T05:03:21;9.43;;;6.10;;
7195;SDS011;3639;51.308;5.624;2023-04-01T05:05:51;12.43;;;7.23;;
7195;SDS011;3639;51.308;5.624;2023-04-01T05:08:18;10.90;;;6.87;;
7195;SDS011;3639;51.308;5.624;2023-04-01T05:10:44;11.00;;;6.20;;
7195;SDS011;3639;51.308;5.624;2023-04-01T05:13:10;8.97;;;6.13;;
7195;SDS011;3639;51.308;5.624;2023-04-01T05:15:35;11.33;;;6.80;;
7195;SDS011;3639;51.308;5.624;2023-04-01T05:18:02;9.47;;;6.13;;
7195;SDS011;3639;51.308;5.624;2023-04-01T05:20:28;7.23;;;5.37;;
7195;SDS011;3639;51.308;5.624;2023-04-01T05:22:57;10.80;;;5.93;;
7195;SDS011;3639;51.308;5.624;2023-04-01T05:25:24;9.27;;;6.50;;
7195;SDS011;3639;51.308;5.624;2023-04-01T05:27:50;7.83;;;5.90;;
7195;SDS011;3639;51.308;5.624;2023-04-01T05:30:16;10.27;;;6.47;;
7195;SDS011;3639;51.308;5.624;2023-04-01T05:32:42;8.03;;;5.93;;
7195;SDS011;3639;51.308;5.624;2023-04-01T05:35:08;8.87;;;6.20;;
7195;SDS011;3639;51.308;5.624;2023-04-01T05:37:34;9.00;;;6.00;;
7195;SDS011;3639;51.308;5.624;2023-04-01T05:40:01;10.13;;;7.00;;
7195;SDS011;3639;51.308;5.624;2023-04-01T05:42:27;6.30;;;5.17;;
7195;SDS011;3639;51.308;5.624;2023-04-01T05:44:53;6.83;;;4.77;;
7195;SDS011;3639;51.308;5.624;2023-04-01T05:47:20;6.10;;;4.57;;
7195;SDS011;3639;51.308;5.624;2023-04-01T05:49:46;6.77;;;4.97;;
7195;SDS011;3639;51.308;5.624;2023-04-01T05:52:12;7.87;;;5.37;;
7195;SDS011;3639;51.308;5.624;2023-04-01T05:54:37;5.67;;;4.57;;
7195;SDS011;3639;51.308;5.624;2023-04-01T05:57:03;7.50;;;4.97;;
7195;SDS011;3639;51.308;5.624;2023-04-01T05:59:28;6.77;;;4.83;;
7195;SDS011;3639;51.308;5.624;2023-04-01T06:01:56;7.33;;;5.50;;
7195;SDS011;3639;51.308;5.624;2023-04-01T06:04:22;6.27;;;4.60;;
7195;SDS011;3639;51.308;5.624;2023-04-01T06:06:48;6.63;;;4.60;;
7195;SDS011;3639;51.308;5.624;2023-04-01T06:09:18;6.33;;;4.87;;
7195;SDS011;3639;51.308;5.624;2023-04-01T06:14:44;5.60;;;4.00;;
7195;SDS011;3639;51.308;5.624;2023-04-01T06:20:16;6.20;;;4.83;;
7195;SDS011;3639;51.308;5.624;2023-04-01T06:23:06;7.90;;;5.17;;
7195;SDS011;3639;51.308;5.624;2023-04-01T06:29:01;6.20;;;4.73;;
7195;SDS011;3639;51.308;5.624;2023-04-01T06:40:02;6.13;;;4.23;;
7195;SDS011;3639;51.308;5.624;2023-04-01T06:43:07;8.27;;;4.93;;
7195;SDS011;3639;51.308;5.624;2023-04-01T06:53:41;5.13;;;4.07;;
7195;SDS011;3639;51.308;5.624;2023-04-01T06:56:21;5.77;;;4.43;;
7195;SDS011;3639;51.308;5.624;2023-04-01T06:58:58;4.10;;;3.50;;
7195;SDS011;3639;51.308;5.624;2023-04-01T07:01:36;5.27;;;4.27;;
7195;SDS011;3639;51.308;5.624;2023-04-01T07:04:11;4.50;;;3.60;;
7195;SDS011;3639;51.308;5.624;2023-04-01T07:09:12;5.43;;;3.87;;
7195;SDS011;3639;51.308;5.624;2023-04-01T07:11:43;5.77;;;4.20;;
7195;SDS011;3639;51.308;5.624;2023-04-01T07:14:25;5.70;;;3.77;;
7195;SDS011;3639;51.308;5.624;2023-04-01T07:19:46;4.97;;;3.67;;
7195;SDS011;3639;51.308;5.624;2023-04-01T07:27:54;4.17;;;3.57;;
7195;SDS011;3639;51.308;5.624;2023-04-01T07:33:44;7.27;;;4.13;;
7195;SDS011;3639;51.308;5.624;2023-04-01T07:36:22;6.00;;;4.67;;
7195;SDS011;3639;51.308;5.624;2023-04-01T07:39:16;5.43;;;4.20;;
7195;SDS011;3639;51.308;5.624;2023-04-01T07:55:31;8.97;;;5.90;;
7195;SDS011;3639;51.308;5.624;2023-04-01T08:01:14;8.37;;;5.30;;
7195;SDS011;3639;51.308;5.624;2023-04-01T08:20:46;19.00;;;9.03;;
7195;SDS011;3639;51.308;5.624;2023-04-01T08:23:16;20.27;;;9.63;;
7195;SDS011;3639;51.308;5.624;2023-04-01T08:25:51;17.67;;;9.90;;
7195;SDS011;3639;51.308;5.624;2023-04-01T08:28:24;21.47;;;9.80;;
7195;SDS011;3639;51.308;5.624;2023-04-01T08:31:05;17.83;;;9.93;;
7195;SDS011;3639;51.308;5.624;2023-04-01T08:33:37;22.93;;;11.00;;
7195;SDS011;3639;51.308;5.624;2023-04-01T08:36:10;14.77;;;9.53;;
7195;SDS011;3639;51.308;5.624;2023-04-01T08:38:46;17.37;;;9.20;;
7195;SDS011;3639;51.308;5.624;2023-04-01T08:47:12;11.97;;;8.00;;
7195;SDS011;3639;51.308;5.624;2023-04-01T08:53:10;11.70;;;7.73;;
7195;SDS011;3639;51.308;5.624;2023-04-01T09:44:36;9.47;;;6.63;;
7195;SDS011;3639;51.308;5.624;2023-04-01T09:55:06;10.93;;;7.53;;
7195;SDS011;3639;51.308;5.624;2023-04-01T10:12:09;11.97;;;6.90;;
7195;SDS011;3639;51.308;5.624;2023-04-01T10:20:19;11.97;;;7.83;;
7195;SDS011;3639;51.308;5.624;2023-04-01T10:40:05;11.97;;;7.37;;
7195;SDS011;3639;51.308;5.624;2023-04-01T10:48:18;11.57;;;7.37;;
7195;SDS011;3639;51.308;5.624;2023-04-01T11:33:17;4.93;;;4.33;;
7195;SDS011;3639;51.308;5.624;2023-04-01T11:41:23;3.70;;;3.33;;
7195;SDS011;3639;51.308;5.624;2023-04-01T11:52:15;4.07;;;3.67;;
7195;SDS011;3639;51.308;5.624;2023-04-01T11:57:38;3.67;;;3.17;;
7195;SDS011;3639;51.308;5.624;2023-04-01T12:00:41;5.07;;;2.63;;
7195;SDS011;3639;51.308;5.624;2023-04-01T12:15:02;5.17;;;3.20;;
7195;SDS011;3639;51.308;5.624;2023-04-01T12:23:08;4.70;;;3.40;;
7195;SDS011;3639;51.308;5.624;2023-04-01T12:28:57;4.13;;;3.27;;
7195;SDS011;3639;51.308;5.624;2023-04-01T12:31:51;5.33;;;3.60;;
7195;SDS011;3639;51.308;5.624;2023-04-01T12:40:24;5.37;;;3.80;;
7195;SDS011;3639;51.308;5.624;2023-04-01T12:45:45;3.73;;;3.43;;
7195;SDS011;3639;51.308;5.624;2023-04-01T12:59:45;6.47;;;4.03;;
7195;SDS011;3639;51.308;5.624;2023-04-01T13:11:54;4.60;;;3.80;;
7195;SDS011;3639;51.308;5.624;2023-04-01T13:42:40;5.07;;;4.47;;
7195;SDS011;3639;51.308;5.624;2023-04-01T13:45:22;5.90;;;5.00;;
7195;SDS011;3639;51.308;5.624;2023-04-01T13:48:17;5.67;;;4.80;;
7195;SDS011;3639;51.308;5.624;2023-04-01T13:51:00;6.30;;;5.00;;
7195;SDS011;3639;51.308;5.624;2023-04-01T13:54:00;6.03;;;5.17;;
7195;SDS011;3639;51.308;5.624;2023-04-01T13:59:39;7.43;;;5.47;;
7195;SDS011;3639;51.308;5.624;2023-04-01T14:02:29;8.27;;;5.53;;
7195;SDS011;3639;51.308;5.624;2023-04-01T14:14:03;6.10;;;5.00;;
7195;SDS011;3639;51.308;5.624;2023-04-01T14:17:02;7.47;;;4.70;;
7195;SDS011;3639;51.308;5.624;2023-04-01T14:33:31;9.10;;;5.80;;
7195;SDS011;3639;51.308;5.624;2023-04-01T14:41:48;8.00;;;5.60;;
7195;SDS011;3639;51.308;5.624;2023-04-01T14:47:30;6.57;;;5.47;;
7195;SDS011;3639;51.308;5.624;2023-04-01T14:50:13;6.73;;;5.33;;
7195;SDS011;3639;51.308;5.624;2023-04-01T14:52:58;9.37;;;5.70;;
7195;SDS011;3639;51.308;5.624;2023-04-01T14:57:58;8.97;;;5.50;;
7195;SDS011;3639;51.308;5.624;2023-04-01T15:00:31;7.63;;;5.73;;
7195;SDS011;3639;51.308;5.624;2023-04-01T15:03:24;7.23;;;5.67;;
7195;SDS011;3639;51.308;5.624;2023-04-01T15:09:14;10.20;;;6.17;;
7195;SDS011;3639;51.308;5.624;2023-04-01T15:12:13;6.27;;;5.30;;
7195;SDS011;3639;51.308;5.624;2023-04-01T15:26:06;6.33;;;4.60;;
7195;SDS011;3639;51.308;5.624;2023-04-01T15:37:14;5.23;;;4.27;;
7195;SDS011;3639;51.308;5.624;2023-04-01T15:42:47;7.27;;;3.97;;
7195;SDS011;3639;51.308;5.624;2023-04-01T15:45:35;3.80;;;3.27;;
7195;SDS011;3639;51.308;5.624;2023-04-01T15:50:53;5.33;;;3.93;;
7195;SDS011;3639;51.308;5.624;2023-04-01T16:04:28;3.63;;;3.33;;
7195;SDS011;3639;51.308;5.624;2023-04-01T16:15:27;3.80;;;3.23;;
7195;SDS011;3639;51.308;5.624;2023-04-01T16:20:43;4.53;;;2.97;;
7195;SDS011;3639;51.308;5.624;2023-04-01T16:23:16;3.73;;;3.10;;
7195;SDS011;3639;51.308;5.624;2023-04-01T16:26:05;3.90;;;3.50;;
7195;SDS011;3639;51.308;5.624;2023-04-01T16:37:21;7.00;;;2.90;;
7195;SDS011;3639;51.308;5.624;2023-04-01T16:40:13;3.43;;;2.40;;
7195;SDS011;3639;51.308;5.624;2023-04-01T16:42:51;2.47;;;2.27;;
7195;SDS011;3639;51.308;5.624;2023-04-01T16:47:54;4.97;;;2.93;;
7195;SDS011;3639;51.308;5.624;2023-04-01T16:50:29;4.20;;;3.57;;
7195;SDS011;3639;51.308;5.624;2023-04-01T16:58:36;4.97;;;4.03;;
7195;SDS011;3639;51.308;5.624;2023-04-01T17:01:12;4.20;;;3.80;;
7195;SDS011;3639;51.308;5.624;2023-04-01T17:03:49;3.60;;;3.30;;
7195;SDS011;3639;51.308;5.624;2023-04-01T17:37:00;8.73;;;7.83;;
7195;SDS011;3639;51.308;5.624;2023-04-01T17:45:09;9.40;;;7.03;;
7195;SDS011;3639;51.308;5.624;2023-04-01T17:50:51;7.27;;;5.63;;
7195;SDS011;3639;51.308;5.624;2023-04-01T17:53:42;6.43;;;5.10;;
7195;SDS011;3639;51.308;5.624;2023-04-01T17:58:59;6.87;;;5.30;;
7195;SDS011;3639;51.308;5.624;2023-04-01T18:01:46;9.20;;;5.73;;
7195;SDS011;3639;51.308;5.624;2023-04-01T18:21:10;12.27;;;7.57;;
7195;SDS011;3639;51.308;5.624;2023-04-01T18:24:06;9.60;;;6.23;;
7195;SDS011;3639;51.308;5.624;2023-04-01T18:26:43;10.80;;;6.30;;
7195;SDS011;3639;51.308;5.624;2023-04-01T18:37:45;11.90;;;7.97;;
7195;SDS011;3639;51.308;5.624;2023-04-01T18:40:36;13.00;;;8.40;;
7195;SDS011;3639;51.308;5.624;2023-04-01T18:44:11;12.37;;;8.23;;
7195;SDS011;3639;51.308;5.624;2023-04-01T18:46:36;13.03;;;7.93;;
7195;SDS011;3639;51.308;5.624;2023-04-01T18:51:54;12.97;;;8.10;;
7195;SDS011;3639;51.308;5.624;2023-04-01T18:57:38;10.30;;;6.80;;
7195;SDS011;3639;51.308;5.624;2023-04-01T19:01:02;12.60;;;7.80;;
7195;SDS011;3639;51.308;5.624;2023-04-01T19:05:49;10.90;;;7.20;;
7195;SDS011;3639;51.308;5.624;2023-04-01T19:19:07;9.27;;;5.97;;
7195;SDS011;3639;51.308;5.624;2023-04-01T19:26:56;14.33;;;7.03;;
7195;SDS011;3639;51.308;5.624;2023-04-01T19:47:02;8.33;;;5.00;;
7195;SDS011;3639;51.308;5.624;2023-04-01T19:50:01;7.20;;;4.37;;
7195;SDS011;3639;51.308;5.624;2023-04-01T19:52:47;8.63;;;5.00;;
7195;SDS011;3639;51.308;5.624;2023-04-01T19:57:54;9.63;;;6.00;;
7195;SDS011;3639;51.308;5.624;2023-04-01T20:14:15;10.77;;;6.33;;
7195;SDS011;3639;51.308;5.624;2023-04-01T20:16:58;12.17;;;6.83;;
7195;SDS011;3639;51.308;5.624;2023-04-01T20:22:38;13.03;;;7.43;;
7195;SDS011;3639;51.308;5.624;2023-04-01T20:25:17;12.23;;;7.03;;
7195;SDS011;3639;51.308;5.624;2023-04-01T20:28:14;13.33;;;8.10;;
7195;SDS011;3639;51.308;5.624;2023-04-01T20:36:42;11.17;;;7.10;;
7195;SDS011;3639;51.308;5.624;2023-04-01T20:44:50;14.37;;;7.93;;
7195;SDS011;3639;51.308;5.624;2023-04-01T20:52:26;13.53;;;7.63;;
7195;SDS011;3639;51.308;5.624;2023-04-01T20:57:51;14.90;;;8.37;;
7195;SDS011;3639;51.308;5.624;2023-04-01T21:03:09;9.63;;;6.90;;
7195;SDS011;3639;51.308;5.624;2023-04-01T21:20:53;12.07;;;7.40;;
7195;SDS011;3639;51.308;5.624;2023-04-01T21:34:43;12.70;;;7.93;;
7195;SDS011;3639;51.308;5.624;2023-04-01T21:37:22;12.50;;;7.77;;
7195;SDS011;3639;51.308;5.624;2023-04-01T21:53:36;13.27;;;8.63;;
7195;SDS011;3639;51.308;5.624;2023-04-01T21:59:52;12.43;;;8.40;;
7195;SDS011;3639;51.308;5.624;2023-04-01T22:05:33;12.20;;;7.83;;
7195;SDS011;3639;51.308;5.624;2023-04-01T22:10:57;13.10;;;8.83;;
7195;SDS011;3639;51.308;5.624;2023-04-01T22:13:36;12.33;;;7.83;;
7195;SDS011;3639;51.308;5.624;2023-04-01T22:16:23;14.00;;;8.70;;
7195;SDS011;3639;51.308;5.624;2023-04-01T22:19:24;12.53;;;7.80;;
7195;SDS011;3639;51.308;5.624;2023-04-01T22:22:18;10.00;;;6.67;;
7195;SDS011;3639;51.308;5.624;2023-04-01T22:33:12;11.33;;;7.33;;
7195;SDS011;3639;51.308;5.624;2023-04-01T22:43:51;10.10;;;6.70;;
7195;SDS011;3639;51.308;5.624;2023-04-01T22:49:09;11.90;;;7.07;;
7195;SDS011;3639;51.308;5.624;2023-04-01T22:51:43;11.20;;;7.63;;
7195;SDS011;3639;51.308;5.624;2023-04-01T22:56:53;14.97;;;8.90;;
7195;SDS011;3639;51.308;5.624;2023-04-01T23:02:16;12.37;;;8.40;;
7195;SDS011;3639;51.308;5.624;2023-04-01T23:04:48;13.43;;;8.97;;
7195;SDS011;3639;51.308;5.624;2023-04-01T23:07:34;11.17;;;7.80;;
7195;SDS011;3639;51.308;5.624;2023-04-01T23:10:57;13.80;;;7.90;;
7195;SDS011;3639;51.308;5.624;2023-04-01T23:13:10;15.37;;;7.67;;
7195;SDS011;3639;51.308;5.624;2023-04-01T23:15:44;11.83;;;6.70;;
7195;SDS011;3639;51.308;5.624;2023-04-01T23:18:16;11.57;;;7.57;;
7195;SDS011;3639;51.308;5.624;2023-04-01T23:23:43;13.07;;;8.33;;
7195;SDS011;3639;51.308;5.624;2023-04-01T23:26:30;12.30;;;7.37;;
7195;SDS011;3639;51.308;5.624;2023-04-01T23:29:01;13.03;;;8.30;;
7195;SDS011;3639;51.308;5.624;2023-04-01T23:34:03;11.47;;;6.90;;
7195;SDS011;3639;51.308;5.624;2023-04-01T23:36:39;12.20;;;8.23;;
7195;SDS011;3639;51.308;5.624;2023-04-01T23:42:02;13.40;;;8.70;;
7195;SDS011;3639;51.308;5.624;2023-04-01T23:44:29;11.50;;;7.83;;
7195;SDS011;3639;51.308;5.624;2023-04-01T23:46:57;12.30;;;8.13;;
7195;SDS011;3639;51.308;5.624;2023-04-01T23:49:25;11.67;;;7.60;;
7195;SDS011;3639;51.308;5.624;2023-04-01T23:52:02;12.43;;;7.80;;
7195;SDS011;3639;51.308;5.624;2023-04-01T23:54:41;12.53;;;7.93;;
7195;SDS011;3639;51.308;5.624;2023-04-01T23:57:14;12.73;;;8.57;;
7195;SDS011;3639;51.308;5.624;2023-04-01T23:59:43;17.03;;;9.43;;
